Time;durP1;ratioP1;P1;durP2;ratioP2;P2;SDS_P1;SDS_P2;PMS_P1;PMS_P2;Temp;Humidity;BMP_temperature;BMP_pressure;BME280_temperature;BME280_humidity;BME280_pressure;Samples;Min_cycle;Max_cycle;Signal;HPM_P1;HPM_P2
2022/06/15 00:02:08;;;;;;;3.50;3.20;;;19.20;99.90;;;;;;5014591;28;20634;-83
2022/06/15 00:04:36;;;;;;;6.73;3.30;;;19.20;99.90;;;;;;5014149;28;20649;-83
2022/06/15 00:07:04;;;;;;;3.73;2.90;;;19.20;99.90;;;;;;5010149;28;20656;-84
2022/06/15 00:09:31;;;;;;;3.53;3.17;;;19.20;99.90;;;;;;5010136;28;20661;-82
2022/06/15 00:11:58;;;;;;;4.20;3.80;;;19.20;99.90;;;;;;5004268;28;20641;-82
2022/06/15 00:14:26;;;;;;;3.77;2.90;;;19.20;99.90;;;;;;5007545;28;21250;-84
2022/06/15 00:16:53;;;;;;;3.40;3.10;;;19.10;99.90;;;;;;5015802;28;20622;-83
2022/06/15 00:19:21;;;;;;;4.20;3.40;;;19.10;99.90;;;;;;5015492;28;20656;-83
2022/06/15 00:21:49;;;;;;;3.87;3.50;;;19.10;99.90;;;;;;5006811;28;20623;-84
2022/06/15 00:24:16;;;;;;;3.20;2.90;;;19.00;99.90;;;;;;5010940;28;20635;-84
2022/06/15 00:26:43;;;;;;;8.30;3.77;;;19.00;99.90;;;;;;5010927;28;21047;-84
2022/06/15 00:29:10;;;;;;;4.40;3.97;;;19.00;99.90;;;;;;5009821;28;20627;-83
2022/06/15 00:31:37;;;;;;;3.17;2.83;;;19.00;99.90;;;;;;5013268;28;21093;-83
2022/06/15 00:34:04;;;;;;;6.00;3.30;;;19.00;99.90;;;;;;5010485;28;21003;-83
2022/06/15 00:36:32;;;;;;;3.80;3.20;;;18.90;99.90;;;;;;5014104;28;20658;-84
2022/06/15 00:39:01;;;;;;;3.37;3.07;;;18.90;99.90;;;;;;5006791;28;20628;-83
2022/06/15 00:41:30;;;;;;;4.43;3.77;;;18.90;99.90;;;;;;5013763;28;20658;-83
2022/06/15 00:43:59;;;;;;;4.80;4.40;;;18.90;99.90;;;;;;5015499;28;21360;-83
2022/06/15 00:46:30;;;;;;;3.30;3.00;;;18.90;99.90;;;;;;5010079;28;20670;-83
2022/06/15 00:49:01;;;;;;;3.27;2.97;;;18.80;99.90;;;;;;5008769;28;20615;-82
2022/06/15 00:51:29;;;;;;;4.03;3.73;;;18.80;99.90;;;;;;5015100;28;20663;-83
2022/06/15 00:53:58;;;;;;;3.07;2.87;;;18.80;99.90;;;;;;5008896;28;20642;-84
2022/06/15 00:56:29;;;;;;;3.53;3.20;;;18.80;99.90;;;;;;5009268;28;21223;-83
2022/06/15 00:59:00;;;;;;;4.13;3.37;;;18.80;99.90;;;;;;5006318;28;20651;-84
2022/06/15 01:01:27;;;;;;;3.63;3.30;;;18.80;99.90;;;;;;5011906;28;20666;-83
2022/06/15 01:03:55;;;;;;;4.00;3.70;;;18.80;99.90;;;;;;5014737;28;20639;-83
2022/06/15 01:06:31;;;;;;;4.67;3.60;;;18.80;99.90;;;;;;5010964;28;20632;-83
2022/06/15 01:09:01;;;;;;;4.07;3.77;;;18.70;99.90;;;;;;5010394;28;20623;-84
2022/06/15 01:11:51;;;;;;;3.07;2.87;;;18.70;99.90;;;;;;5006021;28;20748;-83
2022/06/15 01:14:34;;;;;;;3.80;3.40;;;18.70;99.90;;;;;;5008506;28;20652;-84
2022/06/15 01:17:11;;;;;;;4.70;4.20;;;18.60;99.90;;;;;;5015825;28;20624;-84
2022/06/15 01:20:01;;;;;;;4.40;3.80;;;18.60;99.90;;;;;;5010766;28;20742;-85
2022/06/15 01:22:55;;;;;;;4.23;3.83;;;18.70;99.90;;;;;;5006687;28;20638;-83
2022/06/15 01:25:49;;;;;;;7.90;4.27;;;18.60;99.90;;;;;;5008846;28;20643;-81
2022/06/15 01:28:31;;;;;;;4.97;4.23;;;18.60;99.90;;;;;;4992261;28;21006;-83
2022/06/15 01:31:05;;;;;;;5.27;4.77;;;18.60;99.90;;;;;;5018235;28;20687;-82
2022/06/15 01:33:39;;;;;;;4.93;4.37;;;18.60;99.90;;;;;;5012231;28;21185;-83
2022/06/15 01:36:13;;;;;;;4.57;4.17;;;18.60;99.90;;;;;;5018108;28;20727;-83
2022/06/15 01:38:48;;;;;;;4.53;4.13;;;18.60;99.90;;;;;;5003758;28;20634;-83
2022/06/15 01:41:20;;;;;;;4.60;4.20;;;18.50;99.90;;;;;;5009858;28;20654;-82
2022/06/15 01:43:53;;;;;;;5.47;4.70;;;18.50;99.90;;;;;;5010341;28;20658;-82
2022/06/15 01:46:22;;;;;;;3.80;3.50;;;18.50;99.90;;;;;;5008815;28;21674;-83
2022/06/15 01:48:52;;;;;;;6.37;4.27;;;18.50;99.90;;;;;;5013215;28;20620;-83
2022/06/15 01:51:23;;;;;;;4.77;4.17;;;18.50;99.90;;;;;;5020396;28;20662;-84
2022/06/15 01:53:57;;;;;;;7.50;4.40;;;18.40;99.90;;;;;;5013348;28;20626;-83
2022/06/15 01:56:27;;;;;;;4.50;3.60;;;18.40;99.90;;;;;;5018390;28;20637;-83
2022/06/15 01:59:00;;;;;;;5.00;4.40;;;18.50;99.90;;;;;;5010484;28;20649;-83
2022/06/15 02:01:36;;;;;;;5.20;3.43;;;18.40;99.90;;;;;;5009620;28;20667;-83
2022/06/15 02:04:18;;;;;;;4.77;3.60;;;18.40;99.90;;;;;;5018839;28;20681;-83
2022/06/15 02:06:53;;;;;;;4.57;4.17;;;18.40;99.90;;;;;;5010700;28;20667;-82
2022/06/15 02:09:25;;;;;;;4.93;3.70;;;18.10;99.90;;;;;;5016164;28;20645;-81
2022/06/15 02:11:52;;;;;;;4.00;3.70;;;18.10;99.90;;;;;;5009672;28;20608;-83
2022/06/15 02:14:23;;;;;;;4.97;3.17;;;18.10;99.90;;;;;;5015749;28;20630;-83
2022/06/15 02:16:56;;;;;;;4.00;3.60;;;18.20;99.90;;;;;;5016592;28;20967;-83
2022/06/15 02:19:30;;;;;;;6.53;4.13;;;18.20;99.90;;;;;;5013605;28;21058;-83
2022/06/15 02:22:01;;;;;;;7.10;3.90;;;18.20;99.90;;;;;;5017926;28;20638;-83
2022/06/15 02:24:28;;;;;;;4.03;3.73;;;18.30;99.90;;;;;;5009016;28;20613;-84
2022/06/15 02:26:56;;;;;;;5.90;3.30;;;18.30;99.90;;;;;;5016252;28;20662;-84
2022/06/15 02:29:25;;;;;;;4.37;3.97;;;18.20;99.90;;;;;;5014109;28;21552;-84
2022/06/15 02:31:57;;;;;;;3.90;3.43;;;18.20;99.90;;;;;;5014521;28;20632;-84
2022/06/15 02:34:25;;;;;;;3.57;3.27;;;18.20;99.90;;;;;;5014510;28;20979;-84
2022/06/15 02:36:52;;;;;;;3.70;3.23;;;18.20;99.90;;;;;;5015404;28;21207;-84
2022/06/15 02:39:19;;;;;;;3.20;3.00;;;18.20;99.90;;;;;;5012689;28;20685;-85
2022/06/15 02:41:46;;;;;;;5.53;3.23;;;18.20;99.90;;;;;;5012038;28;20631;-85
2022/06/15 02:44:17;;;;;;;4.80;3.47;;;18.20;99.90;;;;;;5020059;28;21145;-85
2022/06/15 02:46:49;;;;;;;3.80;3.40;;;18.20;99.90;;;;;;5007729;28;20674;-83
2022/06/15 02:49:18;;;;;;;4.50;4.10;;;18.20;99.90;;;;;;5012943;28;20656;-83
2022/06/15 02:51:48;;;;;;;6.53;4.10;;;18.10;99.90;;;;;;5006183;28;20628;-82
2022/06/15 02:54:21;;;;;;;4.10;3.50;;;18.10;99.90;;;;;;5006545;28;21154;-82
2022/06/15 02:56:49;;;;;;;4.00;3.60;;;18.10;99.90;;;;;;5005060;28;20634;-81
2022/06/15 02:59:16;;;;;;;4.80;3.77;;;17.90;99.90;;;;;;5008584;28;20998;-81
2022/06/15 03:01:43;;;;;;;7.87;3.80;;;17.70;99.90;;;;;;5004057;28;20686;-83
2022/06/15 03:04:10;;;;;;;5.30;4.10;;;17.60;99.90;;;;;;5008601;28;20640;-83
2022/06/15 03:06:38;;;;;;;3.93;3.60;;;17.60;99.90;;;;;;5005964;28;20645;-85
2022/06/15 03:09:05;;;;;;;4.80;4.00;;;17.60;99.90;;;;;;5003808;28;20663;-85
2022/06/15 03:11:32;;;;;;;4.13;3.80;;;17.50;99.90;;;;;;5002815;28;20664;-86
2022/06/15 03:13:58;;;;;;;4.73;4.33;;;17.50;99.90;;;;;;5005717;28;20632;-86
2022/06/15 03:16:25;;;;;;;3.93;3.60;;;17.50;99.90;;;;;;5010282;28;20646;-85
2022/06/15 03:18:52;;;;;;;4.13;3.67;;;17.40;99.90;;;;;;5009684;28;20608;-85
2022/06/15 03:21:19;;;;;;;4.13;3.70;;;17.40;99.90;;;;;;5012917;28;20647;-86
2022/06/15 03:23:47;;;;;;;3.97;3.60;;;17.40;99.90;;;;;;5008839;28;21050;-85
2022/06/15 03:26:14;;;;;;;4.93;3.80;;;17.30;99.90;;;;;;5007510;28;20615;-87
2022/06/15 03:28:40;;;;;;;3.57;3.27;;;17.30;99.90;;;;;;5010171;28;20664;-86
2022/06/15 03:31:08;;;;;;;3.37;3.17;;;17.20;99.90;;;;;;5013333;28;20650;-87
2022/06/15 03:33:35;;;;;;;4.23;3.83;;;17.10;99.90;;;;;;5004371;28;20626;-88
2022/06/15 03:36:04;;;;;;;4.50;3.83;;;17.20;99.90;;;;;;5008443;28;20638;-88
2022/06/15 03:38:31;;;;;;;5.23;3.40;;;17.20;99.90;;;;;;5008798;28;20651;-86
2022/06/15 03:40:59;;;;;;;3.60;3.30;;;17.20;99.90;;;;;;5008971;28;20659;-83
2022/06/15 03:43:26;;;;;;;5.87;3.70;;;17.20;99.90;;;;;;5013446;28;21044;-85
2022/06/15 03:45:55;;;;;;;6.43;3.97;;;17.20;99.90;;;;;;5007427;28;20632;-86
2022/06/15 03:48:22;;;;;;;4.40;4.00;;;17.10;99.90;;;;;;5010583;28;20758;-86
2022/06/15 03:50:49;;;;;;;4.50;3.50;;;17.00;99.90;;;;;;5013198;28;20707;-86
2022/06/15 03:53:16;;;;;;;3.83;3.63;;;16.70;99.90;;;;;;5006726;28;20647;-85
2022/06/15 03:55:44;;;;;;;3.40;3.07;;;16.70;99.90;;;;;;5010969;28;20646;-84
2022/06/15 03:58:14;;;;;;;4.03;3.73;;;16.80;99.90;;;;;;5007201;28;20624;-84
2022/06/15 04:00:42;;;;;;;3.87;3.50;;;16.90;99.90;;;;;;5011422;28;20667;-85
2022/06/15 04:03:09;;;;;;;4.40;4.00;;;16.90;99.90;;;;;;5010761;28;20630;-85
2022/06/15 04:05:39;;;;;;;3.57;3.20;;;16.90;99.90;;;;;;5013392;28;20654;-86
2022/06/15 04:10:52;;;;;;;7.10;3.80;;;16.90;99.90;;;;;;5007926;28;21069;-85
2022/06/15 04:13:21;;;;;;;4.07;3.67;;;16.90;99.90;;;;;;5010149;28;20971;-87
2022/06/15 04:15:49;;;;;;;3.70;3.40;;;16.90;99.90;;;;;;5008861;28;20646;-86
2022/06/15 04:18:16;;;;;;;3.87;3.40;;;16.90;99.90;;;;;;5012911;28;20619;-86
2022/06/15 04:20:42;;;;;;;4.00;3.70;;;16.90;99.90;;;;;;5009963;28;20674;-87
2022/06/15 04:23:11;;;;;;;3.80;3.47;;;16.90;99.90;;;;;;5018818;28;20639;-85
2022/06/15 04:25:42;;;;;;;4.50;4.10;;;16.90;99.90;;;;;;5003676;28;20626;-85
2022/06/15 04:28:11;;;;;;;3.70;3.50;;;16.90;99.90;;;;;;5002931;28;20650;-85
2022/06/15 04:30:39;;;;;;;4.23;3.83;;;16.80;99.90;;;;;;5013629;28;20659;-85
2022/06/15 04:33:06;;;;;;;5.10;3.90;;;16.80;99.90;;;;;;5009523;28;20619;-83
2022/06/15 04:35:33;;;;;;;5.13;4.17;;;16.80;99.90;;;;;;5000641;28;20632;-83
2022/06/15 04:38:00;;;;;;;5.70;4.20;;;16.80;99.90;;;;;;5002519;28;20624;-83
2022/06/15 04:40:27;;;;;;;4.50;4.10;;;16.80;99.90;;;;;;5004202;28;21250;-83
2022/06/15 04:42:54;;;;;;;7.13;3.50;;;16.80;99.90;;;;;;5010789;28;20643;-83
2022/06/15 04:45:20;;;;;;;4.83;4.33;;;16.90;99.90;;;;;;5006050;28;20643;-83
2022/06/15 04:47:49;;;;;;;5.30;4.10;;;16.90;99.90;;;;;;5009526;28;21022;-83
2022/06/15 04:50:17;;;;;;;4.43;4.03;;;16.80;99.90;;;;;;5011093;28;21462;-84
2022/06/15 04:52:45;;;;;;;4.90;4.43;;;16.90;99.90;;;;;;5009639;28;21001;-82
2022/06/15 04:55:13;;;;;;;5.20;4.70;;;17.00;99.90;;;;;;5010818;28;20634;-82
2022/06/15 04:57:40;;;;;;;4.53;4.20;;;17.00;99.90;;;;;;5010341;28;20639;-82
2022/06/15 05:00:12;;;;;;;4.97;4.47;;;17.00;99.90;;;;;;5009171;28;20657;-82
2022/06/15 05:02:39;;;;;;;4.47;4.07;;;17.00;99.90;;;;;;5012045;28;21282;-82
2022/06/15 05:05:08;;;;;;;5.90;3.90;;;16.90;99.90;;;;;;5014067;28;20664;-82
2022/06/15 05:07:35;;;;;;;4.13;3.83;;;16.90;99.90;;;;;;5010649;28;20645;-82
2022/06/15 05:10:02;;;;;;;9.27;5.07;;;16.70;99.90;;;;;;5015556;28;20683;-82
2022/06/15 05:12:29;;;;;;;6.00;5.40;;;16.40;99.90;;;;;;5017382;28;20647;-82
2022/06/15 05:14:56;;;;;;;7.57;5.30;;;16.20;99.90;;;;;;5014516;28;21499;-82
2022/06/15 05:17:24;;;;;;;7.90;5.00;;;16.00;99.90;;;;;;5019286;28;21008;-82
2022/06/15 05:19:51;;;;;;;4.40;4.10;;;16.10;99.90;;;;;;5014402;28;20659;-82
2022/06/15 05:22:19;;;;;;;4.93;4.23;;;16.30;99.90;;;;;;5017801;28;20626;-82
2022/06/15 05:24:46;;;;;;;6.00;5.33;;;16.70;99.90;;;;;;5007843;28;20718;-82
2022/06/15 05:27:13;;;;;;;7.13;4.97;;;16.90;99.90;;;;;;5015395;28;20662;-82
2022/06/15 05:29:40;;;;;;;6.00;5.40;;;17.00;99.90;;;;;;5015486;28;21261;-82
2022/06/15 05:32:08;;;;;;;6.07;4.90;;;17.00;99.90;;;;;;5010083;28;20626;-82
2022/06/15 05:34:36;;;;;;;5.70;5.10;;;17.20;99.90;;;;;;5016001;28;20622;-82
2022/06/15 05:37:03;;;;;;;4.53;4.13;;;17.30;99.90;;;;;;5012156;28;20678;-82
2022/06/15 05:39:31;;;;;;;6.03;4.50;;;17.40;99.90;;;;;;5009995;28;21153;-82
2022/06/15 05:41:58;;;;;;;6.13;4.50;;;17.50;99.90;;;;;;5014629;28;21569;-82
2022/06/15 05:44:32;;;;;;;6.07;4.47;;;17.60;99.90;;;;;;5015933;28;20631;-81
2022/06/15 05:47:00;;;;;;;11.17;5.03;;;17.60;99.90;;;;;;5014584;28;20624;-82
2022/06/15 05:49:28;;;;;;;5.67;5.10;;;17.70;99.90;;;;;;5016277;28;20675;-82
2022/06/15 05:51:55;;;;;;;5.03;4.63;;;17.70;99.90;;;;;;5006579;28;20988;-82
2022/06/15 05:54:22;;;;;;;5.67;5.17;;;17.30;99.90;;;;;;5013179;28;21401;-81
2022/06/15 05:56:50;;;;;;;7.23;4.80;;;17.10;99.90;;;;;;5014720;28;20655;-81
2022/06/15 05:59:16;;;;;;;5.93;4.60;;;16.80;99.90;;;;;;5014430;28;20634;-82
2022/06/15 06:01:43;;;;;;;7.30;5.03;;;16.80;99.90;;;;;;5009008;28;20623;-79
2022/06/15 06:04:16;;;;;;;4.73;4.20;;;17.00;99.90;;;;;;5005416;28;20651;-81
2022/06/15 06:06:43;;;;;;;6.87;4.60;;;17.20;99.90;;;;;;5003307;28;20615;-81
2022/06/15 06:09:11;;;;;;;5.60;4.80;;;17.30;99.90;;;;;;5002550;28;20667;-81
2022/06/15 06:11:38;;;;;;;5.37;4.33;;;17.30;99.90;;;;;;4999309;28;21687;-81
2022/06/15 06:14:08;;;;;;;8.10;4.63;;;17.50;99.90;;;;;;5013707;28;20639;-81
2022/06/15 06:16:35;;;;;;;4.87;4.47;;;17.60;99.90;;;;;;5000965;28;20746;-81
2022/06/15 06:19:02;;;;;;;5.63;4.17;;;17.70;99.90;;;;;;5003116;28;20630;-82
2022/06/15 06:21:28;;;;;;;5.77;4.40;;;17.80;99.90;;;;;;5012180;28;20762;-82
2022/06/15 06:23:55;;;;;;;7.00;4.07;;;17.80;99.90;;;;;;5006758;28;20624;-82
2022/06/15 06:26:25;;;;;;;4.80;4.10;;;18.00;99.90;;;;;;5010567;28;21207;-81
2022/06/15 06:28:52;;;;;;;5.30;4.00;;;18.20;99.90;;;;;;5010787;28;20664;-81
2022/06/15 06:31:21;;;;;;;5.90;4.30;;;18.30;99.90;;;;;;5012796;28;20733;-81
2022/06/15 06:33:49;;;;;;;6.67;4.77;;;18.50;99.90;;;;;;5000181;28;20628;-82
2022/06/15 06:36:19;;;;;;;4.80;4.33;;;18.50;99.90;;;;;;5017360;28;20704;-82
2022/06/15 06:38:46;;;;;;;5.33;4.17;;;18.50;99.90;;;;;;5003471;28;21677;-82
2022/06/15 06:41:17;;;;;;;9.67;4.80;;;18.60;99.90;;;;;;5014990;28;20665;-81
2022/06/15 06:43:44;;;;;;;5.17;3.90;;;18.80;99.90;;;;;;5016533;28;20615;-82
2022/06/15 06:46:11;;;;;;;4.17;3.73;;;18.90;99.90;;;;;;5008086;28;20622;-81
2022/06/15 06:48:39;;;;;;;7.00;4.83;;;19.00;99.90;;;;;;5009304;28;20670;-82
2022/06/15 06:51:06;;;;;;;6.67;4.00;;;19.00;99.90;;;;;;5010074;28;20932;-81
2022/06/15 06:53:35;;;;;;;6.30;4.57;;;19.10;99.90;;;;;;5013543;28;20635;-81
2022/06/15 06:56:02;;;;;;;6.47;3.63;;;19.20;99.90;;;;;;5014017;28;20640;-81
2022/06/15 06:58:29;;;;;;;5.50;3.57;;;19.40;99.90;;;;;;5009393;28;20635;-81
2022/06/15 07:00:57;;;;;;;5.20;4.00;;;19.30;99.90;;;;;;5014042;28;21183;-81
2022/06/15 07:03:24;;;;;;;4.87;4.47;;;19.50;99.90;;;;;;5007423;28;21341;-81
2022/06/15 07:05:59;;;;;;;5.00;3.80;;;19.60;99.90;;;;;;4996484;28;20648;-82
2022/06/15 07:08:26;;;;;;;5.03;4.30;;;19.70;99.90;;;;;;5004102;28;21289;-81
2022/06/15 07:10:53;;;;;;;6.87;3.77;;;19.90;99.90;;;;;;5005250;28;20656;-81
2022/06/15 07:13:19;;;;;;;4.87;3.80;;;20.00;99.90;;;;;;5001692;28;20639;-81
2022/06/15 07:15:46;;;;;;;5.53;3.73;;;20.20;99.90;;;;;;5004826;28;20620;-81
2022/06/15 07:18:13;;;;;;;9.80;4.23;;;20.20;99.90;;;;;;5007056;28;20629;-81
2022/06/15 07:20:40;;;;;;;4.57;3.60;;;20.30;99.90;;;;;;5005318;28;20655;-81
2022/06/15 07:23:08;;;;;;;4.67;4.07;;;20.50;99.90;;;;;;5002680;28;20623;-81
2022/06/15 07:25:35;;;;;;;5.57;3.80;;;20.60;99.90;;;;;;5006383;28;20626;-81
2022/06/15 07:28:03;;;;;;;7.27;4.40;;;20.50;99.90;;;;;;5005610;28;21011;-81
2022/06/15 07:30:31;;;;;;;7.80;5.00;;;20.60;99.90;;;;;;5006033;28;21131;-81
2022/06/15 07:32:58;;;;;;;6.50;4.37;;;20.60;99.90;;;;;;5007194;28;20620;-81
2022/06/15 07:35:27;;;;;;;4.83;3.93;;;20.70;99.90;;;;;;5010696;28;20636;-81
2022/06/15 07:37:55;;;;;;;4.83;4.10;;;20.70;99.90;;;;;;5014507;28;20626;-81
2022/06/15 07:40:24;;;;;;;5.27;4.30;;;20.80;99.90;;;;;;5009446;28;20655;-81
2022/06/15 07:42:54;;;;;;;5.47;4.00;;;21.00;99.90;;;;;;5013164;28;20624;-81
2022/06/15 07:45:23;;;;;;;5.97;4.13;;;21.20;99.90;;;;;;5007615;28;20655;-81
2022/06/15 07:50:35;;;;;;;5.63;3.77;;;21.40;99.90;;;;;;5011812;28;21284;-81
2022/06/15 07:53:04;;;;;;;5.53;4.60;;;21.60;99.90;;;;;;5010771;28;20636;-81
2022/06/15 07:55:35;;;;;;;4.10;3.47;;;21.60;96.60;;;;;;5005746;28;20666;-81
2022/06/15 07:58:03;;;;;;;3.67;3.27;;;21.60;96.40;;;;;;5004177;28;20605;-81
2022/06/15 08:00:30;;;;;;;4.20;3.80;;;21.60;96.10;;;;;;5004016;28;21202;-81
2022/06/15 08:02:59;;;;;;;5.90;4.83;;;21.70;96.80;;;;;;5016805;28;20626;-80
2022/06/15 08:05:27;;;;;;;5.93;4.77;;;21.80;97.50;;;;;;5017097;28;20642;-81
2022/06/15 08:07:55;;;;;;;6.47;3.70;;;22.00;96.60;;;;;;5006500;28;20609;-81
2022/06/15 08:10:25;;;;;;;5.57;3.87;;;22.10;97.40;;;;;;5007270;28;20691;-81
2022/06/15 08:12:53;;;;;;;6.00;4.37;;;22.10;95.80;;;;;;5008265;28;20765;-81
2022/06/15 08:15:21;;;;;;;9.97;8.03;;;22.20;96.20;;;;;;5001314;28;20658;-81
2022/06/15 08:17:50;;;;;;;8.23;3.80;;;22.40;95.30;;;;;;5007236;28;20643;-80
2022/06/15 08:20:20;;;;;;;7.93;4.80;;;22.40;93.90;;;;;;4996581;28;20766;-81
2022/06/15 08:22:51;;;;;;;5.93;3.37;;;22.50;94.30;;;;;;5003919;28;20615;-81
2022/06/15 08:25:21;;;;;;;4.40;4.00;;;22.60;94.40;;;;;;5002476;28;20620;-80
2022/06/15 08:27:48;;;;;;;4.57;3.67;;;22.80;94.10;;;;;;5003444;28;20731;-81
2022/06/15 08:30:18;;;;;;;3.73;3.43;;;22.80;93.10;;;;;;5009057;28;21310;-81
2022/06/15 08:32:45;;;;;;;4.20;3.50;;;22.90;94.00;;;;;;4999852;28;20632;-81
2022/06/15 08:35:13;;;;;;;8.57;4.20;;;23.10;94.70;;;;;;5013790;28;21145;-80
2022/06/15 08:37:42;;;;;;;4.00;3.60;;;23.20;93.40;;;;;;5007778;28;20619;-81
2022/06/15 08:40:11;;;;;;;5.20;3.93;;;23.30;93.20;;;;;;5005700;28;20679;-81
2022/06/15 08:42:46;;;;;;;10.40;3.30;;;23.40;92.80;;;;;;5007403;28;20640;-81
2022/06/15 08:45:22;;;;;;;4.23;3.77;;;23.50;92.60;;;;;;5001054;28;20616;-81
2022/06/15 08:48:08;;;;;;;3.70;3.20;;;23.60;91.60;;;;;;5004109;28;21007;-81
2022/06/15 08:50:42;;;;;;;3.73;3.43;;;23.80;92.10;;;;;;5001553;28;20683;-81
2022/06/15 08:53:15;;;;;;;3.93;3.37;;;23.80;90.60;;;;;;5004028;28;20615;-81
2022/06/15 08:55:46;;;;;;;5.53;3.27;;;23.90;89.70;;;;;;5007898;28;20647;-81
2022/06/15 08:58:20;;;;;;;3.63;3.33;;;24.00;86.70;;;;;;5004264;28;21054;-81
2022/06/15 09:00:52;;;;;;;4.47;3.80;;;24.00;86.00;;;;;;5009575;28;20673;-81
2022/06/15 09:03:28;;;;;;;6.73;3.77;;;24.00;87.20;;;;;;5010830;28;20631;-81
2022/06/15 09:06:09;;;;;;;3.97;3.40;;;24.10;86.10;;;;;;5016698;28;20643;-81
2022/06/15 09:08:57;;;;;;;4.53;3.43;;;24.20;84.90;;;;;;5012422;28;20702;-80
2022/06/15 09:11:39;;;;;;;7.03;3.20;;;24.20;86.20;;;;;;5005252;28;20658;-81
2022/06/15 09:14:20;;;;;;;4.40;2.70;;;24.30;85.60;;;;;;5017944;28;20623;-81
2022/06/15 09:16:56;;;;;;;4.50;3.30;;;24.50;85.70;;;;;;5016052;28;20619;-81
2022/06/15 09:19:29;;;;;;;4.67;3.07;;;24.70;87.00;;;;;;5016950;28;20631;-81
2022/06/15 09:22:02;;;;;;;4.37;2.97;;;24.80;83.50;;;;;;5016923;28;20635;-81
2022/06/15 09:24:34;;;;;;;3.70;3.00;;;24.80;81.90;;;;;;5017057;28;20646;-81
2022/06/15 09:27:05;;;;;;;3.97;3.20;;;24.90;83.30;;;;;;5004955;28;20645;-81
2022/06/15 09:29:35;;;;;;;4.33;3.90;;;25.00;81.70;;;;;;5004041;28;20651;-81
2022/06/15 09:32:07;;;;;;;5.30;3.07;;;25.00;80.20;;;;;;5006967;28;20632;-80
2022/06/15 09:34:38;;;;;;;4.17;3.27;;;25.00;80.40;;;;;;5007821;28;20630;-80
2022/06/15 09:37:12;;;;;;;8.20;3.67;;;25.10;80.70;;;;;;5015027;28;20646;-81
2022/06/15 09:39:39;;;;;;;3.33;3.03;;;25.20;81.40;;;;;;5016509;28;20647;-81
2022/06/15 09:42:14;;;;;;;2.57;2.37;;;25.40;79.30;;;;;;5016924;28;20642;-81
2022/06/15 09:44:53;;;;;;;7.13;3.10;;;25.40;79.50;;;;;;5014232;28;21205;-81
2022/06/15 09:47:39;;;;;;;3.23;2.90;;;25.40;79.00;;;;;;5014374;28;20775;-81
2022/06/15 09:50:16;;;;;;;10.00;3.73;;;25.50;77.80;;;;;;5016461;28;20682;-80
2022/06/15 09:52:56;;;;;;;6.23;3.10;;;25.50;78.20;;;;;;5016865;28;20611;-80
2022/06/15 09:55:36;;;;;;;4.00;3.50;;;25.60;78.50;;;;;;5006534;28;20619;-81
2022/06/15 09:58:06;;;;;;;3.27;2.97;;;25.70;77.20;;;;;;5009441;28;20605;-80
2022/06/15 10:00:33;;;;;;;3.67;3.10;;;25.80;76.00;;;;;;5004782;28;20663;-80
2022/06/15 10:03:05;;;;;;;4.33;3.73;;;25.80;75.60;;;;;;5005715;28;20623;-81
2022/06/15 10:05:35;;;;;;;4.07;2.80;;;25.90;76.50;;;;;;5008185;28;20631;-80
2022/06/15 10:08:06;;;;;;;3.87;3.50;;;26.00;77.60;;;;;;5006591;28;20613;-81
2022/06/15 10:10:35;;;;;;;4.30;2.60;;;26.10;77.20;;;;;;5003452;28;20694;-80
2022/06/15 10:13:24;;;;;;;3.40;3.00;;;26.20;76.20;;;;;;5015870;28;20655;-81
2022/06/15 10:15:53;;;;;;;3.70;3.23;;;26.30;75.10;;;;;;5005999;28;20627;-80
2022/06/15 10:18:29;;;;;;;5.20;2.60;;;26.20;73.40;;;;;;5007942;28;20627;-80
2022/06/15 10:21:01;;;;;;;5.00;2.90;;;26.30;73.20;;;;;;5012685;28;20647;-80
2022/06/15 10:23:39;;;;;;;4.20;2.77;;;26.40;71.50;;;;;;5017511;28;20626;-80
2022/06/15 10:26:08;;;;;;;3.80;2.93;;;26.60;70.30;;;;;;5013721;28;20614;-81
2022/06/15 10:28:37;;;;;;;2.70;2.50;;;26.60;68.10;;;;;;5015375;28;20627;-80
2022/06/15 10:31:07;;;;;;;2.60;2.40;;;26.60;69.00;;;;;;5017038;28;20806;-80
2022/06/15 10:33:42;;;;;;;5.23;2.60;;;26.80;70.20;;;;;;5008763;28;20719;-80
2022/06/15 10:36:26;;;;;;;3.23;2.30;;;26.90;69.70;;;;;;5008825;28;20614;-80
2022/06/15 10:39:00;;;;;;;2.70;2.50;;;27.10;69.60;;;;;;5010063;28;20623;-80
2022/06/15 10:41:49;;;;;;;2.50;2.30;;;27.30;66.30;;;;;;5015887;28;20708;-81
2022/06/15 10:44:27;;;;;;;3.03;2.83;;;27.40;63.50;;;;;;5011470;28;20623;-80
2022/06/15 10:46:58;;;;;;;2.83;2.53;;;27.60;63.40;;;;;;5011794;28;20628;-81
2022/06/15 10:49:29;;;;;;;4.70;2.80;;;27.80;63.10;;;;;;5014771;28;20661;-80
2022/06/15 10:51:56;;;;;;;3.83;2.90;;;28.10;65.10;;;;;;5015471;28;21139;-80
2022/06/15 10:54:32;;;;;;;3.57;2.57;;;28.30;63.40;;;;;;5016010;28;20654;-80
2022/06/15 11:03:09;;;;;;;3.20;2.87;;;29.00;55.70;;;;;;5013491;28;20619;-81
2022/06/15 11:05:39;;;;;;;2.50;2.20;;;29.20;53.00;;;;;;5013557;28;21152;-80
2022/06/15 11:08:15;;;;;;;3.33;2.60;;;29.30;52.00;;;;;;5005028;28;20674;-80
2022/06/15 11:10:45;;;;;;;4.13;2.80;;;29.40;52.30;;;;;;5009637;28;20682;-80
2022/06/15 11:13:29;;;;;;;3.10;2.50;;;29.50;52.90;;;;;;5012810;28;20631;-80
2022/06/15 11:18:44;;;;;;;2.80;2.60;;;29.90;50.20;;;;;;5012999;28;20991;-80
2022/06/15 11:21:16;;;;;;;3.10;2.90;;;30.00;50.10;;;;;;5013193;28;20998;-80
2022/06/15 11:23:50;;;;;;;3.13;2.27;;;30.40;50.10;;;;;;5008698;28;21312;-80
2022/06/15 11:29:29;;;;;;;2.93;2.60;;;31.10;49.20;;;;;;5008697;28;20578;-80
2022/06/15 11:32:03;;;;;;;4.30;2.43;;;31.20;46.60;;;;;;5012528;28;20615;-80
2022/06/15 11:34:33;;;;;;;3.73;2.57;;;31.40;46.30;;;;;;5005008;28;20615;-80
2022/06/15 11:37:07;;;;;;;4.23;2.77;;;31.50;45.10;;;;;;5006023;28;20651;-80
2022/06/15 11:39:40;;;;;;;3.57;3.27;;;31.40;45.10;;;;;;5013786;28;21580;-80
2022/06/15 11:42:11;;;;;;;3.80;3.30;;;31.40;45.00;;;;;;5013505;28;20619;-80
2022/06/15 11:44:42;;;;;;;2.73;2.50;;;31.50;43.20;;;;;;5013587;28;20615;-80
2022/06/15 11:47:17;;;;;;;3.13;2.90;;;31.80;43.60;;;;;;5000561;28;21022;-80
2022/06/15 11:49:53;;;;;;;3.83;2.43;;;32.00;43.70;;;;;;5001536;28;20782;-80
2022/06/15 11:52:42;;;;;;;3.20;2.83;;;32.20;44.00;;;;;;5010321;28;20606;-80
2022/06/15 11:55:29;;;;;;;3.20;2.90;;;32.40;44.20;;;;;;5015692;28;20627;-80
2022/06/15 11:58:20;;;;;;;4.80;2.87;;;32.70;43.80;;;;;;5012237;28;20619;-80
2022/06/15 12:00:55;;;;;;;3.50;3.00;;;32.90;43.50;;;;;;5010843;28;20716;-80
2022/06/15 12:03:40;;;;;;;2.83;2.50;;;33.00;43.20;;;;;;5010869;28;20618;-81
2022/06/15 12:06:11;;;;;;;8.73;3.40;;;33.20;43.50;;;;;;5011873;28;20643;-80
2022/06/15 12:08:46;;;;;;;3.87;3.43;;;33.70;45.10;;;;;;5008418;28;20630;-81
2022/06/15 12:14:20;;;;;;;3.83;3.23;;;34.50;42.70;;;;;;5008381;28;20594;-80
2022/06/15 12:16:51;;;;;;;5.13;2.87;;;34.80;43.00;;;;;;5003964;28;21174;-80
2022/06/15 12:19:30;;;;;;;5.10;3.80;;;35.30;43.10;;;;;;5005370;28;20623;-80
2022/06/15 12:22:02;;;;;;;4.73;3.03;;;35.60;41.80;;;;;;5012724;28;20681;-80
2022/06/15 12:24:38;;;;;;;3.90;2.70;;;36.00;41.00;;;;;;5010403;28;20642;-80
2022/06/15 12:27:14;;;;;;;3.17;2.47;;;36.10;39.60;;;;;;5027617;28;20622;-79
2022/06/15 12:29:46;;;;;;;3.57;2.63;;;36.10;39.40;;;;;;5013237;28;20654;-80
2022/06/15 12:35:20;;;;;;;2.60;2.40;;;36.50;37.40;;;;;;5002149;28;20668;-80
2022/06/15 12:37:53;;;;;;;3.10;2.67;;;36.40;36.40;;;;;;5010147;28;20307;-80
2022/06/15 12:40:26;;;;;;;3.50;2.20;;;36.30;36.00;;;;;;5014988;28;20239;-80
2022/06/15 12:43:02;;;;;;;3.90;2.93;;;36.60;36.70;;;;;;5013909;28;20200;-80
2022/06/15 12:45:34;;;;;;;3.40;3.10;;;36.80;36.10;;;;;;5009421;28;20204;-80
2022/06/15 12:48:06;;;;;;;5.10;3.13;;;36.90;35.90;;;;;;5011994;28;20209;-80
2022/06/15 12:50:40;;;;;;;3.25;2.47;;;37.20;35.80;;;;;;5012079;28;20224;-80
2022/06/15 12:53:17;;;;;;;3.47;2.53;;;37.20;35.00;;;;;;5011515;28;20421;-80
2022/06/15 12:55:52;;;;;;;3.53;3.22;;;37.30;34.10;;;;;;5007371;28;20214;-80
2022/06/15 12:58:27;;;;;;;3.13;2.47;;;37.60;35.10;;;;;;5007697;28;20235;-80
2022/06/15 13:01:00;;;;;;;3.72;2.95;;;37.80;33.90;;;;;;5013217;28;20227;-80
2022/06/15 13:03:42;;;;;;;5.28;3.00;;;38.00;33.20;;;;;;5008162;28;21093;-80
2022/06/15 13:06:27;;;;;;;5.00;2.80;;;38.00;32.90;;;;;;5012321;28;20216;-80
2022/06/15 13:09:11;;;;;;;3.10;2.90;;;37.70;33.40;;;;;;5001807;28;20204;-80
2022/06/15 13:11:51;;;;;;;3.03;2.53;;;38.10;34.40;;;;;;5008064;28;20404;-80
2022/06/15 13:14:20;;;;;;;7.10;2.80;;;38.50;33.60;;;;;;5011361;28;20230;-80
2022/06/15 13:17:16;;;;;;;2.63;2.42;;;38.50;32.30;;;;;;5012140;28;20200;-81
2022/06/15 13:19:46;;;;;;;3.88;3.30;;;38.50;32.50;;;;;;5007235;28;20665;-81
2022/06/15 13:22:22;;;;;;;3.30;2.55;;;39.00;33.40;;;;;;5010949;28;20199;-81
2022/06/15 13:24:56;;;;;;;3.30;2.13;;;39.30;33.10;;;;;;5010245;28;20208;-81
2022/06/15 13:27:28;;;;;;;3.28;3.08;;;39.80;32.60;;;;;;5017978;28;20212;-81
2022/06/15 13:30:17;;;;;;;4.05;3.05;;;40.10;31.40;;;;;;5014774;28;20224;-81